createdAt,value
2023-01-17T00:02:28.631Z,45.80
2023-01-17T00:05:14.449Z,44.37
2023-01-17T00:08:00.494Z,45.30
2023-01-17T00:10:29.938Z,45.77
2023-01-17T00:13:00.445Z,45.97
2023-01-17T00:15:30.806Z,45.53
2023-01-17T00:18:02.346Z,46.37
2023-01-17T00:20:50.264Z,44.67
2023-01-17T00:23:37.965Z,44.07
2023-01-17T00:26:15.398Z,42.50
2023-01-17T00:28:43.969Z,42.37
2023-01-17T00:31:13.150Z,44.40
2023-01-17T00:33:44.247Z,43.17
2023-01-17T00:36:11.912Z,44.27
2023-01-17T00:38:40.392Z,45.97
2023-01-17T00:41:09.215Z,44.07
2023-01-17T00:43:55.140Z,46.47
2023-01-17T00:46:41.088Z,43.93
2023-01-17T00:49:28.507Z,45.47
2023-01-17T00:52:14.593Z,45.23
2023-01-17T00:55:00.673Z,45.23
2023-01-17T00:57:46.576Z,44.13
2023-01-17T01:00:33.407Z,44.60
2023-01-17T01:03:19.148Z,43.60
2023-01-17T01:06:06.324Z,44.30
2023-01-17T01:08:55.051Z,40.70
2023-01-17T01:11:40.817Z,45.90
2023-01-17T01:14:29.359Z,41.80
2023-01-17T01:17:15.433Z,39.70
2023-01-17T01:20:01.452Z,39.90
2023-01-17T01:22:48.565Z,42.73
2023-01-17T01:25:34.523Z,42.40
2023-01-17T01:28:24.611Z,39.03
2023-01-17T01:31:10.544Z,40.70
2023-01-17T01:33:41.017Z,39.47
2023-01-17T01:36:10.485Z,42.33
2023-01-17T01:38:43.222Z,40.20
2023-01-17T01:41:14.576Z,43.53
2023-01-17T01:43:50.222Z,44.60
2023-01-17T01:46:25.155Z,43.20
2023-01-17T01:48:56.795Z,42.77
2023-01-17T01:51:30.673Z,42.97
2023-01-17T01:54:05.522Z,42.03
2023-01-17T01:56:34.598Z,42.30
2023-01-17T01:59:05.483Z,41.43
2023-01-17T02:01:37.291Z,43.40
2023-01-17T02:04:10.050Z,44.47
2023-01-17T02:06:41.145Z,42.93
2023-01-17T02:09:13.754Z,42.13
2023-01-17T02:11:42.748Z,44.20
2023-01-17T02:14:16.794Z,43.57
2023-01-17T02:17:05.366Z,40.73
2023-01-17T02:20:10.802Z,43.80
2023-01-17T02:23:11.322Z,41.80
2023-01-17T02:26:30.772Z,43.20
2023-01-17T02:29:32.213Z,43.30
2023-01-17T02:32:06.297Z,42.27
2023-01-17T02:34:42.392Z,43.50
2023-01-17T02:37:17.932Z,42.07
2023-01-17T02:39:54.310Z,42.47
2023-01-17T02:42:28.030Z,45.17
2023-01-17T02:44:56.482Z,43.13
2023-01-17T02:47:29.747Z,42.63
2023-01-17T02:50:02.195Z,43.57
2023-01-17T02:52:48.204Z,44.90
2023-01-17T02:55:28.207Z,44.80
2023-01-17T02:58:10.161Z,42.47
2023-01-17T03:00:48.812Z,43.67
2023-01-17T03:03:25.052Z,42.83
2023-01-17T03:05:58.359Z,44.37
2023-01-17T03:08:27.869Z,43.90
2023-01-17T03:10:56.636Z,43.30
2023-01-17T03:13:25.209Z,46.37
2023-01-17T03:15:53.708Z,46.60
2023-01-17T03:18:23.927Z,44.70
2023-01-17T03:20:52.418Z,46.33
2023-01-17T03:23:20.877Z,46.53
2023-01-17T03:25:50.522Z,44.27
2023-01-17T03:28:19.053Z,44.10
2023-01-17T03:30:47.945Z,46.40
2023-01-17T03:33:18.149Z,44.13
2023-01-17T03:35:49.409Z,44.73
2023-01-17T03:38:17.938Z,45.00
2023-01-17T03:40:46.398Z,44.70
2023-01-17T03:43:14.849Z,44.07
2023-01-17T03:45:43.322Z,44.00
2023-01-17T03:48:11.996Z,46.63
2023-01-17T03:50:40.447Z,47.83
2023-01-17T03:53:10.702Z,44.33
2023-01-17T03:55:39.154Z,41.80
2023-01-17T03:58:07.684Z,44.80
2023-01-17T04:00:38.666Z,41.93
2023-01-17T04:03:07.103Z,44.47
2023-01-17T04:05:35.590Z,46.40
2023-01-17T04:08:04.219Z,46.10
2023-01-17T04:10:34.278Z,44.13
2023-01-17T04:13:02.741Z,45.27
2023-01-17T04:15:31.355Z,43.40
2023-01-17T04:18:00.178Z,43.87
2023-01-17T04:20:33.978Z,41.60
2023-01-17T04:23:02.559Z,42.40
2023-01-17T04:25:31.312Z,43.67
2023-01-17T04:28:02.573Z,47.50
2023-01-17T04:30:31.544Z,46.40
2023-01-17T04:33:03.490Z,44.40
2023-01-17T04:35:34.147Z,46.20
2023-01-17T04:38:02.608Z,46.10
2023-01-17T04:40:31.236Z,45.97
2023-01-17T04:43:01.058Z,46.37
2023-01-17T04:45:29.505Z,44.27
2023-01-17T04:48:03.073Z,44.90
2023-01-17T04:50:33.835Z,44.27
2023-01-17T04:53:02.562Z,44.53
2023-01-17T04:55:31.046Z,46.77
2023-01-17T04:58:01.209Z,47.47
2023-01-17T05:00:30.190Z,46.67
2023-01-17T05:02:58.693Z,44.77
2023-01-17T05:05:29.851Z,43.60
2023-01-17T05:08:01.601Z,43.97
2023-01-17T05:10:31.465Z,44.70
2023-01-17T05:13:01.546Z,42.40
2023-01-17T05:15:30.690Z,42.47
2023-01-17T05:17:59.301Z,45.30
2023-01-17T05:20:30.464Z,46.83
2023-01-17T05:22:59.284Z,45.23
2023-01-17T05:25:29.958Z,44.10
2023-01-17T05:28:00.055Z,45.20
2023-01-17T05:30:31.621Z,44.97
2023-01-17T05:33:00.523Z,43.40
2023-01-17T05:35:32.663Z,45.33
2023-01-17T05:38:04.394Z,41.43
2023-01-17T05:40:34.404Z,38.17
2023-01-17T05:43:05.609Z,40.83
2023-01-17T05:45:36.003Z,41.20
2023-01-17T05:48:09.277Z,36.80
2023-01-17T05:50:39.262Z,39.83
2023-01-17T05:53:09.381Z,38.83
2023-01-17T05:55:38.797Z,36.67
2023-01-17T05:58:08.722Z,39.53
2023-01-17T06:00:41.564Z,39.87
2023-01-17T06:03:11.738Z,38.10
2023-01-17T06:05:40.441Z,38.00
2023-01-17T06:08:09.066Z,40.30
2023-01-17T06:10:37.593Z,44.20
2023-01-17T06:13:07.980Z,44.20
2023-01-17T06:15:38.852Z,43.63
2023-01-17T06:18:07.979Z,42.17
2023-01-17T06:20:36.455Z,43.43
2023-01-17T06:23:06.625Z,43.03
2023-01-17T06:25:38.867Z,44.60
2023-01-17T06:28:08.002Z,41.00
2023-01-17T06:30:37.990Z,41.20
2023-01-17T06:33:09.300Z,43.20
2023-01-17T06:35:38.345Z,43.50
2023-01-17T06:38:06.804Z,43.80
2023-01-17T06:40:35.290Z,43.20
2023-01-17T06:43:06.342Z,42.80
2023-01-17T06:45:36.438Z,43.23
2023-01-17T06:48:06.827Z,42.43
2023-01-17T06:50:38.107Z,42.93
2023-01-17T06:53:08.261Z,44.80
2023-01-17T06:55:40.370Z,45.70
2023-01-17T06:58:10.857Z,46.27
2023-01-17T07:00:40.921Z,45.33
2023-01-17T07:03:20.053Z,44.50
2023-01-17T07:05:49.019Z,45.03
2023-01-17T07:08:18.606Z,42.60
2023-01-17T07:10:49.374Z,46.40
2023-01-17T07:13:17.975Z,45.57
2023-01-17T07:15:48.112Z,44.70
2023-01-17T07:18:20.720Z,44.93
2023-01-17T07:20:49.350Z,44.30
2023-01-17T07:23:21.496Z,45.07
2023-01-17T07:25:53.707Z,45.30
2023-01-17T07:28:24.290Z,45.90
2023-01-17T07:30:53.035Z,46.57
2023-01-17T07:33:23.099Z,43.50
2023-01-17T07:35:51.697Z,45.50
2023-01-17T07:38:21.413Z,42.73
2023-01-17T07:40:52.012Z,43.30
2023-01-17T07:43:20.477Z,44.53
2023-01-17T07:45:51.627Z,47.00
2023-01-17T07:48:23.623Z,47.40
2023-01-17T07:51:00.990Z,47.50
2023-01-17T07:53:31.357Z,45.80
2023-01-17T07:56:02.951Z,46.47
2023-01-17T07:58:31.428Z,46.87
2023-01-17T08:01:05.765Z,44.30
2023-01-17T08:03:39.856Z,42.80
2023-01-17T08:06:18.362Z,43.20
2023-01-17T08:08:47.960Z,45.47
2023-01-17T08:11:16.822Z,46.50
2023-01-17T08:13:45.273Z,46.50
2023-01-17T08:16:15.445Z,44.30
2023-01-17T08:18:45.539Z,44.30
2023-01-17T08:21:16.912Z,44.70
2023-01-17T08:23:48.423Z,43.87
2023-01-17T08:26:21.482Z,45.70
2023-01-17T08:28:50.776Z,45.40
2023-01-17T08:31:19.878Z,44.50
2023-01-17T08:33:49.805Z,45.83
2023-01-17T08:36:21.769Z,43.70
2023-01-17T08:38:52.866Z,47.60
2023-01-17T08:41:22.474Z,47.50
2023-01-17T08:43:52.022Z,46.77
2023-01-17T08:46:20.893Z,43.87
2023-01-17T08:48:56.322Z,44.37
2023-01-17T08:51:26.485Z,44.37
2023-01-17T08:53:56.879Z,43.10
2023-01-17T08:56:26.041Z,42.47
2023-01-17T08:58:54.947Z,44.00
2023-01-17T09:01:23.797Z,42.23
2023-01-17T09:03:53.769Z,44.57
2023-01-17T09:06:24.301Z,43.57
2023-01-17T09:08:54.871Z,46.30
2023-01-17T09:11:23.301Z,48.20
2023-01-17T09:13:54.799Z,43.70
2023-01-17T09:16:24.570Z,45.60
2023-01-17T09:18:57.067Z,44.70
2023-01-17T09:21:28.569Z,46.30
2023-01-17T09:23:57.291Z,43.40
2023-01-17T09:26:28.106Z,42.33
2023-01-17T09:28:59.082Z,42.37
2023-01-17T09:31:30.767Z,41.17
2023-01-17T09:34:03.033Z,41.13
2023-01-17T09:36:33.922Z,42.07
2023-01-17T09:39:03.606Z,41.17
2023-01-17T09:41:34.279Z,41.80
2023-01-17T09:44:07.004Z,42.70
2023-01-17T09:46:40.914Z,41.90
2023-01-17T09:49:16.281Z,43.53
2023-01-17T09:51:45.451Z,38.60
2023-01-17T09:54:22.915Z,38.50
2023-01-17T09:56:59.630Z,35.40
2023-01-17T09:59:35.940Z,36.47
2023-01-17T10:02:18.424Z,33.60
2023-01-17T10:05:12.474Z,29.10
2023-01-17T10:07:52.038Z,29.73
2023-01-17T10:10:35.979Z,26.70
2023-01-17T10:13:13.885Z,24.97
2023-01-17T10:15:55.193Z,24.37
2023-01-17T10:18:57.274Z,21.60
2023-01-17T10:21:43.306Z,21.70
2023-01-17T10:24:53.985Z,24.13
2023-01-17T10:27:27.018Z,21.87
2023-01-17T10:29:55.586Z,24.57
2023-01-17T10:32:28.223Z,26.00
2023-01-17T10:34:59.063Z,28.73
2023-01-17T10:37:39.027Z,29.93
2023-01-17T10:40:19.932Z,29.90
2023-01-17T10:42:58.696Z,26.77
2023-01-17T10:45:29.391Z,26.67
2023-01-17T10:48:04.705Z,28.97
2023-01-17T10:50:42.080Z,27.20
2023-01-17T10:53:23.920Z,28.47
2023-01-17T10:55:54.415Z,24.60
2023-01-17T10:58:23.036Z,26.27
2023-01-17T11:00:56.492Z,26.30
2023-01-17T11:03:25.790Z,27.33
2023-01-17T11:06:19.148Z,25.17
2023-01-17T11:08:54.127Z,24.87
2023-01-17T11:11:25.968Z,26.77
2023-01-17T11:13:56.442Z,28.83
2023-01-17T11:16:28.766Z,28.70
2023-01-17T11:19:14.887Z,28.80
2023-01-17T11:21:53.128Z,27.83
2023-01-17T11:24:35.932Z,28.90
2023-01-17T11:27:06.525Z,28.83
2023-01-17T11:29:37.204Z,28.77
2023-01-17T11:32:30.991Z,29.50
2023-01-17T11:35:21.244Z,28.23
2023-01-17T11:37:58.049Z,28.43
2023-01-17T11:40:30.974Z,28.87
2023-01-17T11:43:05.728Z,26.97
2023-01-17T11:45:35.272Z,28.43
2023-01-17T11:48:12.808Z,28.37
2023-01-17T11:50:43.261Z,28.80
2023-01-17T11:53:20.853Z,30.17
2023-01-17T11:56:05.255Z,29.50
2023-01-17T11:58:35.621Z,31.57
2023-01-17T12:01:19.985Z,28.07
2023-01-17T12:04:02.985Z,27.17
2023-01-17T12:06:56.492Z,27.43
2023-01-17T12:09:34.162Z,28.67
2023-01-17T12:12:31.189Z,26.77
2023-01-17T12:15:15.602Z,26.97
2023-01-17T12:17:57.958Z,24.10
2023-01-17T12:20:32.912Z,23.10
2023-01-17T12:23:22.237Z,22.03
2023-01-17T12:26:00.798Z,24.80
2023-01-17T12:28:55.800Z,23.70
2023-01-17T12:31:33.570Z,22.87
2023-01-17T12:34:15.410Z,21.77
2023-01-17T12:36:49.772Z,21.40
2023-01-17T12:39:24.631Z,20.60
2023-01-17T12:42:00.348Z,19.20
2023-01-17T12:44:50.211Z,17.90
2023-01-17T12:47:21.071Z,17.00
2023-01-17T12:49:57.702Z,17.50
2023-01-17T12:52:38.917Z,15.50
2023-01-17T12:55:16.613Z,15.70
2023-01-17T12:57:48.977Z,15.27
2023-01-17T13:00:23.663Z,15.00
2023-01-17T13:02:58.242Z,14.27
2023-01-17T13:05:33.058Z,12.77
2023-01-17T13:08:07.736Z,12.83
2023-01-17T13:10:40.662Z,11.93
2023-01-17T13:13:22.354Z,11.90
2023-01-17T13:15:55.420Z,11.23
2023-01-17T13:18:29.717Z,10.60
2023-01-17T13:21:10.562Z,10.37
2023-01-17T13:23:55.892Z,9.93
2023-01-17T13:26:41.560Z,12.47
2023-01-17T13:29:17.672Z,11.03
2023-01-17T13:31:50.689Z,11.60
2023-01-17T13:34:53.228Z,10.10
2023-01-17T13:37:46.955Z,11.07
2023-01-17T13:40:34.074Z,10.37
2023-01-17T13:43:03.880Z,9.40
2023-01-17T13:45:34.716Z,8.27
2023-01-17T13:48:28.546Z,8.90
2023-01-17T13:50:57.671Z,8.43
2023-01-17T13:53:57.356Z,7.50
2023-01-17T13:56:31.503Z,7.00
2023-01-17T13:59:35.983Z,7.60
2023-01-17T14:02:04.467Z,7.80
2023-01-17T14:05:20.395Z,7.20
2023-01-17T14:07:57.185Z,6.87
2023-01-17T14:10:35.117Z,6.20
2023-01-17T14:13:05.531Z,6.23
2023-01-17T14:15:48.075Z,6.00
2023-01-17T14:18:33.547Z,6.10
2023-01-17T14:21:12.596Z,6.17
2023-01-17T14:24:07.504Z,5.60
2023-01-17T14:26:46.537Z,6.63
2023-01-17T14:29:49.333Z,6.80
2023-01-17T14:32:20.640Z,6.50
2023-01-17T14:34:53.401Z,9.03
2023-01-17T14:37:29.082Z,9.57
2023-01-17T14:40:01.191Z,7.90
2023-01-17T14:42:31.792Z,8.00
2023-01-17T14:45:06.744Z,8.63
2023-01-17T14:47:39.306Z,9.03
2023-01-17T14:50:16.184Z,9.30
2023-01-17T14:52:45.059Z,8.70
2023-01-17T14:55:21.653Z,9.90
2023-01-17T14:57:57.024Z,10.33
2023-01-17T15:00:29.176Z,11.20
2023-01-17T15:03:00.113Z,10.77
2023-01-17T15:05:31.312Z,12.30
2023-01-17T15:08:01.713Z,11.90
2023-01-17T15:10:33.812Z,11.70
2023-01-17T15:13:10.087Z,11.40
2023-01-17T15:15:41.996Z,11.23
2023-01-17T15:18:23.164Z,10.60
2023-01-17T15:20:56.995Z,10.07
2023-01-17T15:23:31.743Z,10.50
2023-01-17T15:26:03.196Z,10.43
2023-01-17T15:28:32.224Z,9.73
2023-01-17T15:31:10.173Z,10.90
2023-01-17T15:33:41.652Z,9.93
2023-01-17T15:36:13.762Z,9.27
2023-01-17T15:38:50.309Z,9.97
2023-01-17T15:41:23.761Z,9.50
2023-01-17T15:43:57.464Z,10.13
2023-01-17T15:46:33.888Z,9.50
2023-01-17T15:49:17.759Z,10.00
2023-01-17T15:51:53.765Z,10.50
2023-01-17T15:54:47.638Z,10.30
2023-01-17T15:57:26.870Z,10.80
2023-01-17T16:00:06.032Z,10.17
2023-01-17T16:02:37.953Z,10.70
2023-01-17T16:05:38.862Z,10.40
2023-01-17T16:08:33.249Z,10.60
2023-01-17T16:11:06.138Z,11.83
2023-01-17T16:13:38.717Z,10.40
2023-01-17T16:16:15.698Z,10.30
2023-01-17T16:18:46.593Z,10.23
2023-01-17T16:21:19.961Z,10.50
2023-01-17T16:23:48.643Z,11.73
2023-01-17T16:26:17.391Z,12.37
2023-01-17T16:28:47.780Z,11.60
2023-01-17T16:31:16.528Z,11.60
2023-01-17T16:33:46.170Z,12.03
2023-01-17T16:36:16.681Z,12.40
2023-01-17T16:38:46.296Z,12.80
2023-01-17T16:41:14.749Z,12.80
2023-01-17T16:43:43.230Z,14.40
2023-01-17T16:46:15.586Z,13.80
2023-01-17T16:48:46.142Z,14.87
2023-01-17T16:51:14.633Z,14.40
2023-01-17T16:53:43.073Z,13.87
2023-01-17T16:56:14.586Z,15.10
2023-01-17T16:58:43.070Z,16.07
2023-01-17T17:01:15.548Z,15.83
2023-01-17T17:03:44.895Z,15.50
2023-01-17T17:06:13.767Z,16.87
2023-01-17T17:08:43.185Z,16.47
2023-01-17T17:11:14.178Z,15.90
2023-01-17T17:13:44.519Z,14.00
2023-01-17T17:16:17.835Z,14.20
2023-01-17T17:18:48.038Z,14.63
2023-01-17T17:21:19.385Z,15.20
2023-01-17T17:23:51.012Z,15.07
2023-01-17T17:26:19.516Z,14.00
2023-01-17T17:28:52.584Z,12.03
2023-01-17T17:31:22.796Z,13.40
2023-01-17T17:33:51.328Z,12.80
2023-01-17T17:36:20.044Z,11.40
2023-01-17T17:38:54.363Z,12.70
2023-01-17T17:41:25.215Z,11.80
2023-01-17T17:43:54.029Z,11.10
2023-01-17T17:46:26.758Z,12.47
2023-01-17T17:48:55.309Z,11.70
2023-01-17T17:51:28.264Z,11.43
2023-01-17T17:54:00.923Z,11.20
2023-01-17T17:56:30.447Z,11.70
2023-01-17T17:58:59.619Z,11.20
2023-01-17T18:01:30.587Z,11.20
2023-01-17T18:04:03.130Z,10.47
2023-01-17T18:06:34.521Z,10.03
2023-01-17T18:09:03.106Z,10.70
2023-01-17T18:11:33.239Z,11.77
2023-01-17T18:14:03.627Z,11.73
2023-01-17T18:16:36.319Z,12.33
2023-01-17T18:19:06.418Z,10.93
2023-01-17T18:21:37.413Z,10.87
2023-01-17T18:24:08.263Z,10.67
2023-01-17T18:26:38.386Z,11.67
2023-01-17T18:29:08.497Z,10.97
2023-01-17T18:31:38.516Z,10.33
2023-01-17T18:34:09.095Z,11.20
2023-01-17T18:36:38.009Z,11.10
2023-01-17T18:39:12.001Z,10.40
2023-01-17T18:41:40.441Z,10.87
2023-01-17T18:44:09.479Z,11.60
2023-01-17T18:46:40.231Z,11.13
2023-01-17T18:49:11.232Z,12.30
2023-01-17T18:51:40.260Z,12.87
2023-01-17T18:54:08.941Z,13.60
2023-01-17T18:56:37.478Z,13.57
2023-01-17T18:59:07.108Z,14.60
2023-01-17T19:01:38.541Z,13.77
2023-01-17T19:04:08.478Z,13.60
2023-01-17T19:06:41.635Z,14.00
2023-01-17T19:09:12.114Z,14.60
2023-01-17T19:11:43.104Z,13.67
2023-01-17T19:14:12.345Z,14.30
2023-01-17T19:16:42.076Z,13.83
2023-01-17T19:19:14.935Z,15.40
2023-01-17T19:21:43.459Z,16.37
2023-01-17T19:24:14.175Z,16.07
2023-01-17T19:26:43.360Z,17.30
2023-01-17T19:29:12.159Z,17.60
2023-01-17T19:31:43.260Z,17.80
2023-01-17T19:34:16.124Z,17.70
2023-01-17T19:36:45.342Z,18.30
2023-01-17T19:39:14.802Z,18.40
2023-01-17T19:41:44.712Z,17.40
2023-01-17T19:44:15.616Z,19.50
2023-01-17T19:46:46.090Z,19.27
2023-01-17T19:49:21.033Z,20.00
2023-01-17T19:51:51.281Z,19.70
2023-01-17T19:54:19.721Z,20.47
2023-01-17T19:56:48.248Z,21.50
2023-01-17T19:59:20.180Z,20.70
2023-01-17T20:01:49.621Z,21.90
2023-01-17T20:04:19.864Z,21.33
2023-01-17T20:06:48.336Z,21.23
2023-01-17T20:09:17.105Z,21.37
2023-01-17T20:11:46.719Z,21.13
2023-01-17T20:14:16.623Z,22.70
2023-01-17T20:16:50.010Z,21.00
2023-01-17T20:19:20.228Z,22.53
2023-01-17T20:21:48.760Z,21.23
2023-01-17T20:24:17.298Z,22.20
2023-01-17T20:26:46.819Z,23.30
2023-01-17T20:29:17.115Z,21.67
2023-01-17T20:31:46.757Z,23.00
2023-01-17T20:34:18.734Z,23.00
2023-01-17T20:36:48.809Z,24.80
2023-01-17T20:39:18.906Z,24.27
2023-01-17T20:41:50.283Z,26.17
2023-01-17T20:44:20.056Z,28.80
2023-01-17T20:46:49.230Z,26.80
2023-01-17T20:49:20.497Z,28.90
2023-01-17T20:51:50.603Z,29.83
2023-01-17T20:54:20.723Z,29.63
2023-01-17T20:56:49.520Z,28.83
2023-01-17T20:59:20.189Z,31.00
2023-01-17T21:01:49.393Z,30.87
2023-01-17T21:04:25.416Z,31.33
2023-01-17T21:06:58.800Z,29.40
2023-01-17T21:09:27.351Z,29.00
2023-01-17T21:12:01.039Z,32.20
2023-01-17T21:14:29.720Z,31.53
2023-01-17T21:17:00.138Z,32.70
2023-01-17T21:19:28.947Z,31.70
2023-01-17T21:21:59.412Z,33.10
2023-01-17T21:24:28.724Z,32.50
2023-01-17T21:27:00.682Z,33.17
2023-01-17T21:29:32.282Z,32.27
2023-01-17T21:32:00.926Z,30.73
2023-01-17T21:34:32.040Z,31.73
2023-01-17T21:37:02.260Z,31.67
2023-01-17T21:39:31.385Z,30.67
2023-01-17T21:41:59.892Z,30.90
2023-01-17T21:44:35.997Z,30.70
2023-01-17T21:47:05.093Z,32.13
2023-01-17T21:49:33.709Z,32.20
2023-01-17T21:52:21.682Z,32.60
2023-01-17T21:55:09.814Z,33.17
2023-01-17T21:57:56.014Z,32.43
2023-01-17T22:00:24.891Z,34.20
2023-01-17T22:02:53.455Z,40.23
2023-01-17T22:05:21.936Z,34.57
2023-01-17T22:08:12.259Z,33.90
2023-01-17T22:10:45.531Z,32.73
2023-01-17T22:13:15.329Z,33.33
2023-01-17T22:15:46.758Z,33.10
2023-01-17T22:18:17.989Z,33.17
2023-01-17T22:20:46.494Z,30.20
2023-01-17T22:23:16.304Z,31.53
2023-01-17T22:25:45.034Z,30.50
2023-01-17T22:28:13.641Z,32.00
2023-01-17T22:30:42.171Z,31.50
2023-01-17T22:33:10.731Z,30.57
2023-01-17T22:35:39.200Z,28.47
2023-01-17T22:38:09.865Z,32.37
2023-01-17T22:40:39.713Z,30.30
2023-01-17T22:43:08.181Z,30.40
2023-01-17T22:45:36.605Z,29.07
2023-01-17T22:48:08.074Z,26.60
2023-01-17T22:50:36.645Z,27.07
2023-01-17T22:53:05.197Z,27.40
2023-01-17T22:55:35.553Z,28.83
2023-01-17T22:58:07.106Z,27.40
2023-01-17T23:00:35.737Z,26.93
2023-01-17T23:03:06.374Z,25.90
2023-01-17T23:05:34.970Z,27.33
2023-01-17T23:08:03.483Z,29.00
2023-01-17T23:10:49.305Z,27.97
2023-01-17T23:13:19.636Z,28.50
2023-01-17T23:16:06.378Z,27.27
2023-01-17T23:18:52.156Z,29.23
2023-01-17T23:21:20.601Z,29.87
2023-01-17T23:23:48.996Z,29.47
2023-01-17T23:26:17.433Z,28.33
2023-01-17T23:28:46.287Z,29.70
2023-01-17T23:31:16.405Z,29.77
2023-01-17T23:33:44.833Z,31.67
2023-01-17T23:36:13.282Z,28.60
2023-01-17T23:38:44.145Z,29.47
2023-01-17T23:41:44.631Z,30.13
2023-01-17T23:44:15.246Z,31.03
2023-01-17T23:46:43.745Z,29.90
2023-01-17T23:49:12.397Z,30.30
2023-01-17T23:51:40.828Z,30.60
2023-01-17T23:54:10.321Z,28.30
2023-01-17T23:56:38.810Z,28.77
2023-01-17T23:59:07.379Z,28.47
